sensor_id;sensor_type;location;lat;lon;timestamp;temperature;humidity
44565;DHT22;30275;51.822;-0.326;2023-03-23T00:01:05;10.20;99.90
44565;DHT22;30275;51.822;-0.326;2023-03-23T00:03:31;9.10;99.90
44565;DHT22;30275;51.822;-0.326;2023-03-23T00:05:58;8.10;99.90
44565;DHT22;30275;51.822;-0.326;2023-03-23T00:08:37;7.80;99.90
44565;DHT22;30275;51.822;-0.326;2023-03-23T00:11:21;7.70;99.90
44565;DHT22;30275;51.822;-0.326;2023-03-23T00:13:48;7.80;99.90
44565;DHT22;30275;51.822;-0.326;2023-03-23T00:16:19;7.90;99.90
44565;DHT22;30275;51.822;-0.326;2023-03-23T00:18:46;8.00;99.90
44565;DHT22;30275;51.822;-0.326;2023-03-23T00:21:12;8.00;99.90
44565;DHT22;30275;51.822;-0.326;2023-03-23T00:23:38;8.00;99.90
44565;DHT22;30275;51.822;-0.326;2023-03-23T00:26:04;8.10;99.90
44565;DHT22;30275;51.822;-0.326;2023-03-23T00:28:30;8.20;99.90
44565;DHT22;30275;51.822;-0.326;2023-03-23T00:31:04;8.20;99.90
44565;DHT22;30275;51.822;-0.326;2023-03-23T00:33:35;8.30;99.90
44565;DHT22;30275;51.822;-0.326;2023-03-23T00:36:04;8.40;99.90
44565;DHT22;30275;51.822;-0.326;2023-03-23T00:38:31;8.40;99.90
44565;DHT22;30275;51.822;-0.326;2023-03-23T00:40:56;8.50;99.90
44565;DHT22;30275;51.822;-0.326;2023-03-23T00:43:24;8.50;99.90
44565;DHT22;30275;51.822;-0.326;2023-03-23T00:45:54;8.50;99.90
44565;DHT22;30275;51.822;-0.326;2023-03-23T00:48:21;8.50;99.90
44565;DHT22;30275;51.822;-0.326;2023-03-23T00:50:47;8.50;99.90
44565;DHT22;30275;51.822;-0.326;2023-03-23T00:53:14;8.50;99.90
44565;DHT22;30275;51.822;-0.326;2023-03-23T00:55:44;8.50;99.90
44565;DHT22;30275;51.822;-0.326;2023-03-23T00:58:10;8.60;99.90
44565;DHT22;30275;51.822;-0.326;2023-03-23T01:00:37;8.60;99.90
44565;DHT22;30275;51.822;-0.326;2023-03-23T01:03:03;8.60;99.90
44565;DHT22;30275;51.822;-0.326;2023-03-23T01:05:33;8.60;99.90
44565;DHT22;30275;51.822;-0.326;2023-03-23T01:07:59;8.50;99.90
44565;DHT22;30275;51.822;-0.326;2023-03-23T01:10:25;8.50;99.90
44565;DHT22;30275;51.822;-0.326;2023-03-23T01:12:52;8.40;99.90
44565;DHT22;30275;51.822;-0.326;2023-03-23T01:15:18;8.30;99.90
44565;DHT22;30275;51.822;-0.326;2023-03-23T01:17:44;8.30;99.90
44565;DHT22;30275;51.822;-0.326;2023-03-23T01:20:12;8.20;99.90
44565;DHT22;30275;51.822;-0.326;2023-03-23T01:22:39;8.20;99.90
44565;DHT22;30275;51.822;-0.326;2023-03-23T01:25:06;8.10;99.90
44565;DHT22;30275;51.822;-0.326;2023-03-23T01:27:32;8.10;99.90
44565;DHT22;30275;51.822;-0.326;2023-03-23T01:29:57;8.10;99.90
44565;DHT22;30275;51.822;-0.326;2023-03-23T01:32:23;8.10;99.90
44565;DHT22;30275;51.822;-0.326;2023-03-23T01:34:48;8.00;99.90
44565;DHT22;30275;51.822;-0.326;2023-03-23T01:37:14;8.00;99.90
44565;DHT22;30275;51.822;-0.326;2023-03-23T01:39:41;8.00;99.90
44565;DHT22;30275;51.822;-0.326;2023-03-23T01:42:09;8.00;99.90
44565;DHT22;30275;51.822;-0.326;2023-03-23T01:47:00;7.90;99.90
44565;DHT22;30275;51.822;-0.326;2023-03-23T01:49:40;7.90;99.90
44565;DHT22;30275;51.822;-0.326;2023-03-23T01:52:17;7.80;99.90
44565;DHT22;30275;51.822;-0.326;2023-03-23T01:54:48;7.80;99.90
44565;DHT22;30275;51.822;-0.326;2023-03-23T01:57:17;7.80;99.90
44565;DHT22;30275;51.822;-0.326;2023-03-23T01:59:45;7.90;99.90
44565;DHT22;30275;51.822;-0.326;2023-03-23T02:02:13;7.80;99.90
44565;DHT22;30275;51.822;-0.326;2023-03-23T02:04:43;7.80;99.90
44565;DHT22;30275;51.822;-0.326;2023-03-23T02:07:09;7.80;99.90
44565;DHT22;30275;51.822;-0.326;2023-03-23T02:09:36;7.80;99.90
44565;DHT22;30275;51.822;-0.326;2023-03-23T02:12:02;7.70;99.90
44565;DHT22;30275;51.822;-0.326;2023-03-23T02:14:28;7.80;99.90
44565;DHT22;30275;51.822;-0.326;2023-03-23T02:30:40;7.70;99.90
44565;DHT22;30275;51.822;-0.326;2023-03-23T02:33:40;7.70;99.90
44565;DHT22;30275;51.822;-0.326;2023-03-23T02:38:42;7.70;99.90
44565;DHT22;30275;51.822;-0.326;2023-03-23T02:41:10;7.70;99.90
44565;DHT22;30275;51.822;-0.326;2023-03-23T02:43:40;7.70;99.90
44565;DHT22;30275;51.822;-0.326;2023-03-23T02:46:08;7.60;99.90
44565;DHT22;30275;51.822;-0.326;2023-03-23T02:48:36;7.70;99.90
44565;DHT22;30275;51.822;-0.326;2023-03-23T02:51:05;7.70;99.90
44565;DHT22;30275;51.822;-0.326;2023-03-23T02:53:34;7.60;99.90
44565;DHT22;30275;51.822;-0.326;2023-03-23T02:56:02;7.60;99.90
44565;DHT22;30275;51.822;-0.326;2023-03-23T02:58:30;7.70;99.90
44565;DHT22;30275;51.822;-0.326;2023-03-23T03:00:56;7.70;99.90
44565;DHT22;30275;51.822;-0.326;2023-03-23T03:03:29;7.70;99.90
44565;DHT22;30275;51.822;-0.326;2023-03-23T03:08:52;7.70;99.90
44565;DHT22;30275;51.822;-0.326;2023-03-23T03:11:21;7.60;99.90
44565;DHT22;30275;51.822;-0.326;2023-03-23T03:14:07;7.60;99.90
44565;DHT22;30275;51.822;-0.326;2023-03-23T03:16:52;7.60;99.90
44565;DHT22;30275;51.822;-0.326;2023-03-23T03:21:47;7.60;99.90
44565;DHT22;30275;51.822;-0.326;2023-03-23T03:24:15;7.50;99.90
44565;DHT22;30275;51.822;-0.326;2023-03-23T03:26:46;7.50;99.90
44565;DHT22;30275;51.822;-0.326;2023-03-23T03:29:14;7.50;99.90
44565;DHT22;30275;51.822;-0.326;2023-03-23T03:31:43;7.50;99.90
44565;DHT22;30275;51.822;-0.326;2023-03-23T03:34:11;7.40;99.90
44565;DHT22;30275;51.822;-0.326;2023-03-23T03:36:37;7.40;99.90
44565;DHT22;30275;51.822;-0.326;2023-03-23T03:39:06;7.50;99.90
44565;DHT22;30275;51.822;-0.326;2023-03-23T03:41:34;7.50;99.90
44565;DHT22;30275;51.822;-0.326;2023-03-23T03:44:00;7.50;99.90
44565;DHT22;30275;51.822;-0.326;2023-03-23T03:46:26;7.50;99.90
44565;DHT22;30275;51.822;-0.326;2023-03-23T03:48:55;7.50;99.90
44565;DHT22;30275;51.822;-0.326;2023-03-23T03:51:22;7.50;99.90
44565;DHT22;30275;51.822;-0.326;2023-03-23T03:53:48;7.60;99.90
44565;DHT22;30275;51.822;-0.326;2023-03-23T03:56:14;7.60;99.90
44565;DHT22;30275;51.822;-0.326;2023-03-23T03:58:39;7.60;99.90
44565;DHT22;30275;51.822;-0.326;2023-03-23T04:01:08;7.70;99.90
44565;DHT22;30275;51.822;-0.326;2023-03-23T04:03:35;7.60;99.90
44565;DHT22;30275;51.822;-0.326;2023-03-23T04:06:02;7.60;99.90
44565;DHT22;30275;51.822;-0.326;2023-03-23T04:08:28;7.60;99.90
44565;DHT22;30275;51.822;-0.326;2023-03-23T04:10:54;7.70;99.90
44565;DHT22;30275;51.822;-0.326;2023-03-23T04:13:19;7.70;99.90
44565;DHT22;30275;51.822;-0.326;2023-03-23T04:15:46;7.70;99.90
44565;DHT22;30275;51.822;-0.326;2023-03-23T04:18:13;7.70;99.90
44565;DHT22;30275;51.822;-0.326;2023-03-23T04:20:41;7.70;99.90
44565;DHT22;30275;51.822;-0.326;2023-03-23T04:23:07;7.70;99.90
44565;DHT22;30275;51.822;-0.326;2023-03-23T04:25:33;7.70;99.90
44565;DHT22;30275;51.822;-0.326;2023-03-23T04:27:59;7.70;99.90
44565;DHT22;30275;51.822;-0.326;2023-03-23T04:30:27;7.70;99.90
44565;DHT22;30275;51.822;-0.326;2023-03-23T04:32:53;7.60;99.90
44565;DHT22;30275;51.822;-0.326;2023-03-23T04:35:24;7.60;99.90
44565;DHT22;30275;51.822;-0.326;2023-03-23T04:37:53;7.60;99.90
44565;DHT22;30275;51.822;-0.326;2023-03-23T04:40:20;7.60;99.90
44565;DHT22;30275;51.822;-0.326;2023-03-23T04:42:46;7.60;99.90
44565;DHT22;30275;51.822;-0.326;2023-03-23T04:45:14;7.50;99.90
44565;DHT22;30275;51.822;-0.326;2023-03-23T04:47:40;7.50;99.90
44565;DHT22;30275;51.822;-0.326;2023-03-23T04:50:11;7.50;99.90
44565;DHT22;30275;51.822;-0.326;2023-03-23T04:52:38;7.50;99.90
44565;DHT22;30275;51.822;-0.326;2023-03-23T04:55:07;7.50;99.90
44565;DHT22;30275;51.822;-0.326;2023-03-23T04:57:33;7.40;99.90
44565;DHT22;30275;51.822;-0.326;2023-03-23T05:00:00;7.40;99.90
44565;DHT22;30275;51.822;-0.326;2023-03-23T05:02:26;7.40;99.90
44565;DHT22;30275;51.822;-0.326;2023-03-23T05:04:56;7.40;99.90
44565;DHT22;30275;51.822;-0.326;2023-03-23T05:07:22;7.40;99.90
44565;DHT22;30275;51.822;-0.326;2023-03-23T05:09:48;7.30;99.90
44565;DHT22;30275;51.822;-0.326;2023-03-23T05:12:14;7.20;99.90
44565;DHT22;30275;51.822;-0.326;2023-03-23T05:14:41;7.20;99.90
44565;DHT22;30275;51.822;-0.326;2023-03-23T05:17:07;7.20;99.90
44565;DHT22;30275;51.822;-0.326;2023-03-23T05:19:33;7.20;99.90
44565;DHT22;30275;51.822;-0.326;2023-03-23T05:21:59;7.20;99.90
44565;DHT22;30275;51.822;-0.326;2023-03-23T05:24:31;7.30;99.90
44565;DHT22;30275;51.822;-0.326;2023-03-23T05:26:58;7.20;99.90
44565;DHT22;30275;51.822;-0.326;2023-03-23T05:29:24;7.20;99.90
44565;DHT22;30275;51.822;-0.326;2023-03-23T05:31:51;7.10;99.90
44565;DHT22;30275;51.822;-0.326;2023-03-23T05:34:18;7.20;99.90
44565;DHT22;30275;51.822;-0.326;2023-03-23T05:36:44;7.20;99.90
44565;DHT22;30275;51.822;-0.326;2023-03-23T05:39:11;7.20;99.90
44565;DHT22;30275;51.822;-0.326;2023-03-23T05:41:38;7.20;99.90
44565;DHT22;30275;51.822;-0.326;2023-03-23T05:44:04;7.20;99.90
44565;DHT22;30275;51.822;-0.326;2023-03-23T05:46:30;7.10;99.90
44565;DHT22;30275;51.822;-0.326;2023-03-23T05:48:56;7.20;99.90
44565;DHT22;30275;51.822;-0.326;2023-03-23T05:51:21;7.20;99.90
44565;DHT22;30275;51.822;-0.326;2023-03-23T05:53:47;7.30;99.90
44565;DHT22;30275;51.822;-0.326;2023-03-23T05:56:13;7.30;99.90
44565;DHT22;30275;51.822;-0.326;2023-03-23T05:58:39;7.40;99.90
44565;DHT22;30275;51.822;-0.326;2023-03-23T06:01:08;7.30;99.90
44565;DHT22;30275;51.822;-0.326;2023-03-23T06:03:33;7.30;99.90
44565;DHT22;30275;51.822;-0.326;2023-03-23T06:06:03;7.40;99.90
44565;DHT22;30275;51.822;-0.326;2023-03-23T06:08:29;7.40;99.90
44565;DHT22;30275;51.822;-0.326;2023-03-23T06:10:54;7.40;99.90
44565;DHT22;30275;51.822;-0.326;2023-03-23T06:13:21;7.40;99.90
44565;DHT22;30275;51.822;-0.326;2023-03-23T06:15:47;7.40;99.90
44565;DHT22;30275;51.822;-0.326;2023-03-23T06:18:13;7.40;99.90
44565;DHT22;30275;51.822;-0.326;2023-03-23T06:20:39;7.50;99.90
44565;DHT22;30275;51.822;-0.326;2023-03-23T06:23:06;7.50;99.90
44565;DHT22;30275;51.822;-0.326;2023-03-23T06:25:34;7.60;99.90
44565;DHT22;30275;51.822;-0.326;2023-03-23T06:28:00;7.60;99.90
44565;DHT22;30275;51.822;-0.326;2023-03-23T06:30:26;7.70;99.90
44565;DHT22;30275;51.822;-0.326;2023-03-23T06:32:52;7.70;99.90
44565;DHT22;30275;51.822;-0.326;2023-03-23T06:35:18;7.70;99.90
44565;DHT22;30275;51.822;-0.326;2023-03-23T06:37:44;7.70;99.90
44565;DHT22;30275;51.822;-0.326;2023-03-23T06:40:10;7.80;99.90
44565;DHT22;30275;51.822;-0.326;2023-03-23T06:42:36;7.90;99.90
44565;DHT22;30275;51.822;-0.326;2023-03-23T06:45:03;7.90;99.90
44565;DHT22;30275;51.822;-0.326;2023-03-23T06:47:29;8.00;99.90
44565;DHT22;30275;51.822;-0.326;2023-03-23T06:49:55;8.00;99.90
44565;DHT22;30275;51.822;-0.326;2023-03-23T06:52:22;8.00;99.90
44565;DHT22;30275;51.822;-0.326;2023-03-23T06:54:48;8.10;99.90
44565;DHT22;30275;51.822;-0.326;2023-03-23T06:57:14;8.10;99.90
44565;DHT22;30275;51.822;-0.326;2023-03-23T06:59:40;8.20;99.90
44565;DHT22;30275;51.822;-0.326;2023-03-23T07:02:09;8.30;99.90
44565;DHT22;30275;51.822;-0.326;2023-03-23T07:04:35;8.40;99.90
44565;DHT22;30275;51.822;-0.326;2023-03-23T07:07:01;8.40;99.90
44565;DHT22;30275;51.822;-0.326;2023-03-23T07:09:27;8.50;99.90
44565;DHT22;30275;51.822;-0.326;2023-03-23T07:11:52;8.50;99.90
44565;DHT22;30275;51.822;-0.326;2023-03-23T07:14:18;8.60;99.90
44565;DHT22;30275;51.822;-0.326;2023-03-23T07:16:44;8.70;99.90
44565;DHT22;30275;51.822;-0.326;2023-03-23T07:19:10;8.80;99.90
44565;DHT22;30275;51.822;-0.326;2023-03-23T07:21:36;8.80;99.90
44565;DHT22;30275;51.822;-0.326;2023-03-23T07:24:02;8.90;99.90
44565;DHT22;30275;51.822;-0.326;2023-03-23T07:26:28;8.90;99.90
44565;DHT22;30275;51.822;-0.326;2023-03-23T07:28:53;9.00;99.90
44565;DHT22;30275;51.822;-0.326;2023-03-23T07:31:19;9.10;99.90
44565;DHT22;30275;51.822;-0.326;2023-03-23T07:33:44;9.10;99.90
44565;DHT22;30275;51.822;-0.326;2023-03-23T07:36:10;9.20;99.90
44565;DHT22;30275;51.822;-0.326;2023-03-23T07:38:35;9.40;99.90
44565;DHT22;30275;51.822;-0.326;2023-03-23T07:41:02;9.50;99.90
44565;DHT22;30275;51.822;-0.326;2023-03-23T07:43:28;9.50;99.90
44565;DHT22;30275;51.822;-0.326;2023-03-23T07:45:54;9.50;99.90
44565;DHT22;30275;51.822;-0.326;2023-03-23T07:48:19;9.50;99.90
44565;DHT22;30275;51.822;-0.326;2023-03-23T07:50:45;9.60;99.90
44565;DHT22;30275;51.822;-0.326;2023-03-23T07:53:11;9.60;99.90
44565;DHT22;30275;51.822;-0.326;2023-03-23T07:55:37;9.70;99.90
44565;DHT22;30275;51.822;-0.326;2023-03-23T07:58:03;9.90;99.90
44565;DHT22;30275;51.822;-0.326;2023-03-23T08:00:28;10.00;99.90
44565;DHT22;30275;51.822;-0.326;2023-03-23T08:02:56;10.20;99.90
44565;DHT22;30275;51.822;-0.326;2023-03-23T08:05:23;10.20;99.90
44565;DHT22;30275;51.822;-0.326;2023-03-23T08:07:50;10.30;99.90
44565;DHT22;30275;51.822;-0.326;2023-03-23T08:10:17;10.40;99.90
44565;DHT22;30275;51.822;-0.326;2023-03-23T08:12:44;10.60;99.90
44565;DHT22;30275;51.822;-0.326;2023-03-23T08:15:12;10.80;99.90
44565;DHT22;30275;51.822;-0.326;2023-03-23T08:17:39;10.80;99.90
44565;DHT22;30275;51.822;-0.326;2023-03-23T08:20:06;10.90;99.90
44565;DHT22;30275;51.822;-0.326;2023-03-23T08:22:38;11.20;99.90
44565;DHT22;30275;51.822;-0.326;2023-03-23T08:25:06;11.40;99.90
44565;DHT22;30275;51.822;-0.326;2023-03-23T08:27:32;11.30;99.90
44565;DHT22;30275;51.822;-0.326;2023-03-23T08:29:58;11.30;99.90
44565;DHT22;30275;51.822;-0.326;2023-03-23T08:32:25;11.40;99.90
44565;DHT22;30275;51.822;-0.326;2023-03-23T08:34:51;11.70;99.90
44565;DHT22;30275;51.822;-0.326;2023-03-23T08:37:16;12.00;99.90
44565;DHT22;30275;51.822;-0.326;2023-03-23T08:39:42;13.10;99.90
44565;DHT22;30275;51.822;-0.326;2023-03-23T08:42:08;14.00;99.90
44565;DHT22;30275;51.822;-0.326;2023-03-23T08:44:35;13.60;99.90
44565;DHT22;30275;51.822;-0.326;2023-03-23T08:47:02;13.60;99.90
44565;DHT22;30275;51.822;-0.326;2023-03-23T08:49:29;14.20;99.90
44565;DHT22;30275;51.822;-0.326;2023-03-23T08:51:58;14.40;99.90
44565;DHT22;30275;51.822;-0.326;2023-03-23T08:54:24;14.30;99.90
44565;DHT22;30275;51.822;-0.326;2023-03-23T08:56:50;13.80;99.90
44565;DHT22;30275;51.822;-0.326;2023-03-23T08:59:16;14.10;99.90
44565;DHT22;30275;51.822;-0.326;2023-03-23T09:01:42;14.40;99.90
44565;DHT22;30275;51.822;-0.326;2023-03-23T09:04:08;15.20;99.90
44565;DHT22;30275;51.822;-0.326;2023-03-23T09:06:35;15.10;99.90
44565;DHT22;30275;51.822;-0.326;2023-03-23T09:09:01;15.00;99.90
44565;DHT22;30275;51.822;-0.326;2023-03-23T09:11:35;14.80;99.90
44565;DHT22;30275;51.822;-0.326;2023-03-23T09:14:02;15.40;99.90
44565;DHT22;30275;51.822;-0.326;2023-03-23T09:16:28;16.30;99.90
44565;DHT22;30275;51.822;-0.326;2023-03-23T09:18:54;16.40;99.90
44565;DHT22;30275;51.822;-0.326;2023-03-23T09:21:23;15.90;99.90
44565;DHT22;30275;51.822;-0.326;2023-03-23T09:23:48;15.20;99.90
44565;DHT22;30275;51.822;-0.326;2023-03-23T09:26:15;15.40;99.90
44565;DHT22;30275;51.822;-0.326;2023-03-23T09:28:40;14.90;99.90
44565;DHT22;30275;51.822;-0.326;2023-03-23T09:31:06;13.80;99.90
44565;DHT22;30275;51.822;-0.326;2023-03-23T09:33:32;14.30;99.90
44565;DHT22;30275;51.822;-0.326;2023-03-23T09:36:00;15.40;99.90
44565;DHT22;30275;51.822;-0.326;2023-03-23T09:38:27;15.50;99.90
44565;DHT22;30275;51.822;-0.326;2023-03-23T09:48:58;15.00;99.90
44565;DHT22;30275;51.822;-0.326;2023-03-23T09:55:05;13.60;99.90
44565;DHT22;30275;51.822;-0.326;2023-03-23T10:02:41;14.60;99.90
44565;DHT22;30275;51.822;-0.326;2023-03-23T10:05:34;16.00;99.90
44565;DHT22;30275;51.822;-0.326;2023-03-23T10:08:05;15.70;99.90
44565;DHT22;30275;51.822;-0.326;2023-03-23T10:16:24;13.90;99.90
44565;DHT22;30275;51.822;-0.326;2023-03-23T10:21:24;14.50;99.90
44565;DHT22;30275;51.822;-0.326;2023-03-23T10:23:58;15.00;99.90
44565;DHT22;30275;51.822;-0.326;2023-03-23T10:29:16;14.20;99.90
44565;DHT22;30275;51.822;-0.326;2023-03-23T10:31:58;13.20;99.90
44565;DHT22;30275;51.822;-0.326;2023-03-23T10:37:14;12.90;99.90
44565;DHT22;30275;51.822;-0.326;2023-03-23T10:39:57;12.50;99.90
44565;DHT22;30275;51.822;-0.326;2023-03-23T10:42:31;12.60;99.90
44565;DHT22;30275;51.822;-0.326;2023-03-23T10:45:00;12.60;99.90
44565;DHT22;30275;51.822;-0.326;2023-03-23T10:47:25;12.40;99.90
44565;DHT22;30275;51.822;-0.326;2023-03-23T10:50:00;12.10;99.90
44565;DHT22;30275;51.822;-0.326;2023-03-23T10:52:37;11.90;99.90
44565;DHT22;30275;51.822;-0.326;2023-03-23T10:55:24;11.70;99.90
44565;DHT22;30275;51.822;-0.326;2023-03-23T10:58:03;11.70;99.90
44565;DHT22;30275;51.822;-0.326;2023-03-23T11:00:30;11.60;99.90
44565;DHT22;30275;51.822;-0.326;2023-03-23T11:03:06;11.30;99.90
44565;DHT22;30275;51.822;-0.326;2023-03-23T11:05:52;11.00;99.90
44565;DHT22;30275;51.822;-0.326;2023-03-23T11:08:20;11.10;99.90
44565;DHT22;30275;51.822;-0.326;2023-03-23T11:13:29;11.20;99.90
44565;DHT22;30275;51.822;-0.326;2023-03-23T11:15:55;11.20;99.90
44565;DHT22;30275;51.822;-0.326;2023-03-23T11:18:43;11.30;99.90
44565;DHT22;30275;51.822;-0.326;2023-03-23T11:21:11;11.30;99.90
44565;DHT22;30275;51.822;-0.326;2023-03-23T11:23:39;11.00;99.90
44565;DHT22;30275;51.822;-0.326;2023-03-23T11:31:12;10.80;99.90
44565;DHT22;30275;51.822;-0.326;2023-03-23T11:33:49;10.90;99.90
44565;DHT22;30275;51.822;-0.326;2023-03-23T11:36:16;11.00;99.90
44565;DHT22;30275;51.822;-0.326;2023-03-23T11:38:43;11.10;99.90
44565;DHT22;30275;51.822;-0.326;2023-03-23T11:41:18;11.20;99.90
44565;DHT22;30275;51.822;-0.326;2023-03-23T11:43:46;11.20;99.90
44565;DHT22;30275;51.822;-0.326;2023-03-23T11:46:26;11.30;99.90
44565;DHT22;30275;51.822;-0.326;2023-03-23T11:49:05;11.50;99.90
44565;DHT22;30275;51.822;-0.326;2023-03-23T11:54:29;12.00;99.90
44565;DHT22;30275;51.822;-0.326;2023-03-23T11:56:52;12.30;99.90
44565;DHT22;30275;51.822;-0.326;2023-03-23T11:59:32;12.50;99.90
44565;DHT22;30275;51.822;-0.326;2023-03-23T12:07:53;15.40;99.90
44565;DHT22;30275;51.822;-0.326;2023-03-23T12:16:40;16.10;99.90
44565;DHT22;30275;51.822;-0.326;2023-03-23T12:22:09;15.60;99.90
44565;DHT22;30275;51.822;-0.326;2023-03-23T12:36:06;15.60;99.90
44565;DHT22;30275;51.822;-0.326;2023-03-23T12:44:31;15.40;99.90
44565;DHT22;30275;51.822;-0.326;2023-03-23T12:49:41;14.70;99.90
44565;DHT22;30275;51.822;-0.326;2023-03-23T12:52:24;14.50;99.90
44565;DHT22;30275;51.822;-0.326;2023-03-23T12:55:32;14.50;99.90
44565;DHT22;30275;51.822;-0.326;2023-03-23T12:58:07;14.60;99.90
44565;DHT22;30275;51.822;-0.326;2023-03-23T13:03:42;14.50;99.90
44565;DHT22;30275;51.822;-0.326;2023-03-23T13:06:17;14.70;99.90
44565;DHT22;30275;51.822;-0.326;2023-03-23T13:08:58;14.60;99.90
44565;DHT22;30275;51.822;-0.326;2023-03-23T13:11:34;14.70;99.90
44565;DHT22;30275;51.822;-0.326;2023-03-23T13:22:42;15.40;99.90
44565;DHT22;30275;51.822;-0.326;2023-03-23T13:25:19;15.10;99.90
44565;DHT22;30275;51.822;-0.326;2023-03-23T13:27:56;15.00;99.90
44565;DHT22;30275;51.822;-0.326;2023-03-23T13:30:23;14.60;99.90
44565;DHT22;30275;51.822;-0.326;2023-03-23T13:32:50;14.50;99.90
44565;DHT22;30275;51.822;-0.326;2023-03-23T13:35:18;14.30;99.90
44565;DHT22;30275;51.822;-0.326;2023-03-23T13:37:48;14.40;99.90
44565;DHT22;30275;51.822;-0.326;2023-03-23T13:40:28;14.40;99.90
44565;DHT22;30275;51.822;-0.326;2023-03-23T13:42:56;14.50;99.90
44565;DHT22;30275;51.822;-0.326;2023-03-23T13:45:24;14.50;99.90
44565;DHT22;30275;51.822;-0.326;2023-03-23T13:50:58;14.50;99.90
44565;DHT22;30275;51.822;-0.326;2023-03-23T13:56:16;14.70;99.90
44565;DHT22;30275;51.822;-0.326;2023-03-23T13:58:48;14.70;99.90
44565;DHT22;30275;51.822;-0.326;2023-03-23T14:01:19;14.50;99.90
44565;DHT22;30275;51.822;-0.326;2023-03-23T14:03:59;14.60;99.90
44565;DHT22;30275;51.822;-0.326;2023-03-23T14:06:27;14.50;99.90
44565;DHT22;30275;51.822;-0.326;2023-03-23T14:09:11;14.70;99.90
44565;DHT22;30275;51.822;-0.326;2023-03-23T14:11:58;14.50;99.90
44565;DHT22;30275;51.822;-0.326;2023-03-23T14:14:41;14.50;99.90
44565;DHT22;30275;51.822;-0.326;2023-03-23T14:17:10;14.40;99.90
44565;DHT22;30275;51.822;-0.326;2023-03-23T14:19:38;14.40;99.90
44565;DHT22;30275;51.822;-0.326;2023-03-23T14:22:04;14.20;99.90
44565;DHT22;30275;51.822;-0.326;2023-03-23T14:24:41;14.00;99.90
44565;DHT22;30275;51.822;-0.326;2023-03-23T14:27:12;13.80;99.90
44565;DHT22;30275;51.822;-0.326;2023-03-23T14:29:38;13.80;99.90
44565;DHT22;30275;51.822;-0.326;2023-03-23T14:32:06;13.70;99.90
44565;DHT22;30275;51.822;-0.326;2023-03-23T14:34:33;13.60;99.90
44565;DHT22;30275;51.822;-0.326;2023-03-23T14:36:59;13.60;99.90
44565;DHT22;30275;51.822;-0.326;2023-03-23T14:39:27;13.70;99.90
44565;DHT22;30275;51.822;-0.326;2023-03-23T14:42:00;13.90;99.90
44565;DHT22;30275;51.822;-0.326;2023-03-23T14:44:30;14.00;99.90
44565;DHT22;30275;51.822;-0.326;2023-03-23T14:47:00;14.30;99.90
44565;DHT22;30275;51.822;-0.326;2023-03-23T14:49:36;14.40;99.90
44565;DHT22;30275;51.822;-0.326;2023-03-23T14:52:11;14.30;99.90
44565;DHT22;30275;51.822;-0.326;2023-03-23T14:54:38;14.40;99.90
44565;DHT22;30275;51.822;-0.326;2023-03-23T14:57:30;14.30;99.90
44565;DHT22;30275;51.822;-0.326;2023-03-23T14:59:56;14.20;99.90
44565;DHT22;30275;51.822;-0.326;2023-03-23T15:02:37;14.10;99.90
44565;DHT22;30275;51.822;-0.326;2023-03-23T15:05:22;14.10;99.90
44565;DHT22;30275;51.822;-0.326;2023-03-23T15:07:52;13.90;99.90
44565;DHT22;30275;51.822;-0.326;2023-03-23T15:10:22;13.80;99.90
44565;DHT22;30275;51.822;-0.326;2023-03-23T15:12:49;13.60;99.90
44565;DHT22;30275;51.822;-0.326;2023-03-23T15:15:30;13.50;99.90
44565;DHT22;30275;51.822;-0.326;2023-03-23T15:17:57;13.40;99.90
44565;DHT22;30275;51.822;-0.326;2023-03-23T15:20:31;13.30;99.90
44565;DHT22;30275;51.822;-0.326;2023-03-23T15:23:04;13.30;99.90
44565;DHT22;30275;51.822;-0.326;2023-03-23T15:25:32;13.40;99.90
44565;DHT22;30275;51.822;-0.326;2023-03-23T15:30:36;13.20;99.90
44565;DHT22;30275;51.822;-0.326;2023-03-23T15:33:10;13.10;99.90
44565;DHT22;30275;51.822;-0.326;2023-03-23T15:35:40;13.10;99.90
44565;DHT22;30275;51.822;-0.326;2023-03-23T15:38:18;12.90;99.90
44565;DHT22;30275;51.822;-0.326;2023-03-23T15:40:48;12.70;99.90
44565;DHT22;30275;51.822;-0.326;2023-03-23T15:43:25;12.50;99.90
44565;DHT22;30275;51.822;-0.326;2023-03-23T15:48:29;12.10;99.90
44565;DHT22;30275;51.822;-0.326;2023-03-23T15:50:55;12.00;99.90
44565;DHT22;30275;51.822;-0.326;2023-03-23T15:53:34;11.90;99.90
44565;DHT22;30275;51.822;-0.326;2023-03-23T15:56:03;11.70;99.90
44565;DHT22;30275;51.822;-0.326;2023-03-23T15:58:30;11.60;99.90
44565;DHT22;30275;51.822;-0.326;2023-03-23T16:00:56;11.50;99.90
44565;DHT22;30275;51.822;-0.326;2023-03-23T16:03:26;11.20;99.90
44565;DHT22;30275;51.822;-0.326;2023-03-23T16:05:53;11.00;99.90
44565;DHT22;30275;51.822;-0.326;2023-03-23T16:08:20;10.90;99.90
44565;DHT22;30275;51.822;-0.326;2023-03-23T16:10:45;10.80;99.90
44565;DHT22;30275;51.822;-0.326;2023-03-23T16:13:11;10.70;99.90
44565;DHT22;30275;51.822;-0.326;2023-03-23T16:15:36;10.60;99.90
44565;DHT22;30275;51.822;-0.326;2023-03-23T16:18:02;10.60;99.90
44565;DHT22;30275;51.822;-0.326;2023-03-23T16:20:29;10.60;99.90
44565;DHT22;30275;51.822;-0.326;2023-03-23T16:22:55;10.60;99.90
44565;DHT22;30275;51.822;-0.326;2023-03-23T16:25:21;10.60;99.90
44565;DHT22;30275;51.822;-0.326;2023-03-23T16:27:46;10.60;99.90
44565;DHT22;30275;51.822;-0.326;2023-03-23T16:30:22;10.50;99.90
44565;DHT22;30275;51.822;-0.326;2023-03-23T16:32:48;10.60;99.90
44565;DHT22;30275;51.822;-0.326;2023-03-23T16:35:15;10.60;99.90
44565;DHT22;30275;51.822;-0.326;2023-03-23T16:37:50;10.60;99.90
44565;DHT22;30275;51.822;-0.326;2023-03-23T16:40:18;10.50;99.90
44565;DHT22;30275;51.822;-0.326;2023-03-23T16:42:44;10.60;99.90
44565;DHT22;30275;51.822;-0.326;2023-03-23T16:45:10;10.60;99.90
44565;DHT22;30275;51.822;-0.326;2023-03-23T16:47:36;10.50;99.90
44565;DHT22;30275;51.822;-0.326;2023-03-23T16:50:03;10.40;99.90
44565;DHT22;30275;51.822;-0.326;2023-03-23T16:52:32;10.40;99.90
44565;DHT22;30275;51.822;-0.326;2023-03-23T16:54:57;10.30;99.90
44565;DHT22;30275;51.822;-0.326;2023-03-23T16:57:23;10.30;99.90
44565;DHT22;30275;51.822;-0.326;2023-03-23T16:59:49;10.20;99.90
44565;DHT22;30275;51.822;-0.326;2023-03-23T17:02:16;10.20;99.90
44565;DHT22;30275;51.822;-0.326;2023-03-23T17:04:43;10.20;99.90
44565;DHT22;30275;51.822;-0.326;2023-03-23T17:07:09;10.20;99.90
44565;DHT22;30275;51.822;-0.326;2023-03-23T17:09:35;10.10;99.90
44565;DHT22;30275;51.822;-0.326;2023-03-23T17:12:01;10.10;99.90
44565;DHT22;30275;51.822;-0.326;2023-03-23T17:14:26;10.10;99.90
44565;DHT22;30275;51.822;-0.326;2023-03-23T17:16:52;10.10;99.90
44565;DHT22;30275;51.822;-0.326;2023-03-23T17:19:17;10.10;99.90
44565;DHT22;30275;51.822;-0.326;2023-03-23T17:21:43;10.10;99.90
44565;DHT22;30275;51.822;-0.326;2023-03-23T17:24:09;10.10;99.90
44565;DHT22;30275;51.822;-0.326;2023-03-23T17:26:35;10.00;99.90
44565;DHT22;30275;51.822;-0.326;2023-03-23T17:29:01;10.00;99.90
44565;DHT22;30275;51.822;-0.326;2023-03-23T17:31:26;10.00;99.90
44565;DHT22;30275;51.822;-0.326;2023-03-23T17:33:52;10.00;99.90
44565;DHT22;30275;51.822;-0.326;2023-03-23T17:36:19;10.00;99.90